sensor_id;sensor_type;location;lat;lon;timestamp;P1;durP1;ratioP1;P2;durP2;ratioP2
3971;SDS011;2000;47.572;14.202;2023-12-04T00:00:07;7.47;;;3.47;;
3971;SDS011;2000;47.572;14.202;2023-12-04T00:02:38;5.93;;;3.10;;
3971;SDS011;2000;47.572;14.202;2023-12-04T00:05:05;7.77;;;3.90;;
3971;SDS011;2000;47.572;14.202;2023-12-04T00:07:33;15.27;;;3.90;;
3971;SDS011;2000;47.572;14.202;2023-12-04T00:10:00;11.03;;;4.07;;
3971;SDS011;2000;47.572;14.202;2023-12-04T00:12:27;5.90;;;2.40;;
3971;SDS011;2000;47.572;14.202;2023-12-04T00:14:54;5.97;;;4.07;;
3971;SDS011;2000;47.572;14.202;2023-12-04T00:17:21;5.67;;;3.27;;
3971;SDS011;2000;47.572;14.202;2023-12-04T00:19:48;4.90;;;2.93;;
3971;SDS011;2000;47.572;14.202;2023-12-04T00:22:15;7.83;;;3.17;;
3971;SDS011;2000;47.572;14.202;2023-12-04T00:24:42;5.33;;;3.20;;
3971;SDS011;2000;47.572;14.202;2023-12-04T00:27:10;5.63;;;2.97;;
3971;SDS011;2000;47.572;14.202;2023-12-04T00:29:37;6.30;;;3.80;;
3971;SDS011;2000;47.572;14.202;2023-12-04T00:32:04;7.63;;;3.70;;
3971;SDS011;2000;47.572;14.202;2023-12-04T00:34:31;7.80;;;3.07;;
3971;SDS011;2000;47.572;14.202;2023-12-04T00:36:58;6.07;;;3.40;;
3971;SDS011;2000;47.572;14.202;2023-12-04T00:39:25;6.43;;;2.80;;
3971;SDS011;2000;47.572;14.202;2023-12-04T00:41:52;3.67;;;1.67;;
3971;SDS011;2000;47.572;14.202;2023-12-04T00:44:19;4.93;;;2.93;;
3971;SDS011;2000;47.572;14.202;2023-12-04T00:46:46;3.57;;;2.57;;
3971;SDS011;2000;47.572;14.202;2023-12-04T00:49:13;6.77;;;2.43;;
3971;SDS011;2000;47.572;14.202;2023-12-04T00:51:41;3.70;;;2.57;;
3971;SDS011;2000;47.572;14.202;2023-12-04T00:54:08;2.83;;;2.53;;
3971;SDS011;2000;47.572;14.202;2023-12-04T00:56:37;2.90;;;2.13;;
3971;SDS011;2000;47.572;14.202;2023-12-04T00:59:05;1.87;;;1.50;;
3971;SDS011;2000;47.572;14.202;2023-12-04T01:01:33;6.40;;;2.23;;
3971;SDS011;2000;47.572;14.202;2023-12-04T01:04:00;4.53;;;2.00;;
3971;SDS011;2000;47.572;14.202;2023-12-04T01:06:27;4.33;;;2.03;;
3971;SDS011;2000;47.572;14.202;2023-12-04T01:08:54;6.60;;;2.30;;
3971;SDS011;2000;47.572;14.202;2023-12-04T01:11:21;2.13;;;1.33;;
3971;SDS011;2000;47.572;14.202;2023-12-04T01:13:49;1.83;;;1.63;;
3971;SDS011;2000;47.572;14.202;2023-12-04T01:16:16;4.67;;;2.03;;
3971;SDS011;2000;47.572;14.202;2023-12-04T01:18:46;3.33;;;1.60;;
3971;SDS011;2000;47.572;14.202;2023-12-04T01:21:13;5.87;;;2.30;;
3971;SDS011;2000;47.572;14.202;2023-12-04T01:23:41;4.67;;;2.77;;
3971;SDS011;2000;47.572;14.202;2023-12-04T01:26:09;4.47;;;2.47;;
3971;SDS011;2000;47.572;14.202;2023-12-04T01:28:36;1.63;;;1.30;;
3971;SDS011;2000;47.572;14.202;2023-12-04T01:31:04;13.67;;;2.90;;
3971;SDS011;2000;47.572;14.202;2023-12-04T01:33:32;5.23;;;2.90;;
3971;SDS011;2000;47.572;14.202;2023-12-04T01:36:00;2.63;;;2.33;;
3971;SDS011;2000;47.572;14.202;2023-12-04T01:38:28;3.33;;;2.90;;
3971;SDS011;2000;47.572;14.202;2023-12-04T01:40:55;6.90;;;2.97;;
3971;SDS011;2000;47.572;14.202;2023-12-04T01:43:22;5.70;;;2.97;;
3971;SDS011;2000;47.572;14.202;2023-12-04T01:45:49;3.60;;;3.07;;
3971;SDS011;2000;47.572;14.202;2023-12-04T01:48:17;9.00;;;4.20;;
3971;SDS011;2000;47.572;14.202;2023-12-04T01:50:44;4.27;;;2.13;;
3971;SDS011;2000;47.572;14.202;2023-12-04T01:53:11;9.07;;;3.50;;
3971;SDS011;2000;47.572;14.202;2023-12-04T01:55:38;8.00;;;2.20;;
3971;SDS011;2000;47.572;14.202;2023-12-04T01:58:06;4.97;;;2.57;;
3971;SDS011;2000;47.572;14.202;2023-12-04T02:00:33;7.10;;;2.77;;
3971;SDS011;2000;47.572;14.202;2023-12-04T02:03:01;3.63;;;2.93;;
3971;SDS011;2000;47.572;14.202;2023-12-04T02:05:28;7.83;;;2.70;;
3971;SDS011;2000;47.572;14.202;2023-12-04T02:07:56;5.60;;;2.40;;
3971;SDS011;2000;47.572;14.202;2023-12-04T02:10:23;4.17;;;2.30;;
3971;SDS011;2000;47.572;14.202;2023-12-04T02:12:50;7.90;;;4.47;;
3971;SDS011;2000;47.572;14.202;2023-12-04T02:15:17;7.27;;;3.03;;
3971;SDS011;2000;47.572;14.202;2023-12-04T02:17:44;6.07;;;3.30;;
3971;SDS011;2000;47.572;14.202;2023-12-04T02:20:14;11.33;;;3.40;;
3971;SDS011;2000;47.572;14.202;2023-12-04T02:22:41;7.53;;;3.13;;
3971;SDS011;2000;47.572;14.202;2023-12-04T02:25:09;4.60;;;4.10;;
3971;SDS011;2000;47.572;14.202;2023-12-04T02:27:56;4.73;;;3.43;;
3971;SDS011;2000;47.572;14.202;2023-12-04T02:30:28;5.90;;;3.50;;
3971;SDS011;2000;47.572;14.202;2023-12-04T02:32:59;3.93;;;2.20;;
3971;SDS011;2000;47.572;14.202;2023-12-04T02:35:27;4.43;;;2.97;;
3971;SDS011;2000;47.572;14.202;2023-12-04T02:37:56;5.90;;;2.63;;
3971;SDS011;2000;47.572;14.202;2023-12-04T02:40:25;4.07;;;2.23;;
3971;SDS011;2000;47.572;14.202;2023-12-04T02:42:52;3.97;;;2.97;;
3971;SDS011;2000;47.572;14.202;2023-12-04T02:45:19;11.30;;;4.20;;
3971;SDS011;2000;47.572;14.202;2023-12-04T02:47:46;4.40;;;2.67;;
3971;SDS011;2000;47.572;14.202;2023-12-04T02:50:13;4.63;;;2.90;;
3971;SDS011;2000;47.572;14.202;2023-12-04T02:52:40;3.10;;;2.10;;
3971;SDS011;2000;47.572;14.202;2023-12-04T02:55:07;4.50;;;2.43;;
3971;SDS011;2000;47.572;14.202;2023-12-04T02:57:34;8.70;;;2.63;;
3971;SDS011;2000;47.572;14.202;2023-12-04T03:00:01;4.73;;;2.27;;
3971;SDS011;2000;47.572;14.202;2023-12-04T03:02:30;4.70;;;2.47;;
3971;SDS011;2000;47.572;14.202;2023-12-04T03:04:57;6.43;;;2.60;;
3971;SDS011;2000;47.572;14.202;2023-12-04T03:07:24;3.73;;;2.70;;
3971;SDS011;2000;47.572;14.202;2023-12-04T03:09:51;3.67;;;2.20;;
3971;SDS011;2000;47.572;14.202;2023-12-04T03:12:18;2.47;;;1.90;;
3971;SDS011;2000;47.572;14.202;2023-12-04T03:14:45;3.83;;;2.50;;
3971;SDS011;2000;47.572;14.202;2023-12-04T03:17:12;4.07;;;3.00;;
3971;SDS011;2000;47.572;14.202;2023-12-04T03:19:39;4.53;;;2.30;;
3971;SDS011;2000;47.572;14.202;2023-12-04T03:22:06;6.83;;;3.07;;
3971;SDS011;2000;47.572;14.202;2023-12-04T03:24:33;8.03;;;4.13;;
3971;SDS011;2000;47.572;14.202;2023-12-04T03:27:01;3.87;;;3.10;;
3971;SDS011;2000;47.572;14.202;2023-12-04T03:29:28;10.83;;;3.17;;
3971;SDS011;2000;47.572;14.202;2023-12-04T03:31:56;6.03;;;3.03;;
3971;SDS011;2000;47.572;14.202;2023-12-04T03:34:23;5.90;;;2.70;;
3971;SDS011;2000;47.572;14.202;2023-12-04T03:36:50;8.03;;;3.27;;
3971;SDS011;2000;47.572;14.202;2023-12-04T03:39:18;4.17;;;2.30;;
3971;SDS011;2000;47.572;14.202;2023-12-04T03:41:45;9.90;;;2.70;;
3971;SDS011;2000;47.572;14.202;2023-12-04T03:44:12;3.83;;;2.50;;
3971;SDS011;2000;47.572;14.202;2023-12-04T03:46:39;2.73;;;2.43;;
3971;SDS011;2000;47.572;14.202;2023-12-04T03:49:06;8.83;;;1.70;;
3971;SDS011;2000;47.572;14.202;2023-12-04T03:51:33;1.93;;;1.57;;
3971;SDS011;2000;47.572;14.202;2023-12-04T03:54:00;2.93;;;1.43;;
3971;SDS011;2000;47.572;14.202;2023-12-04T03:56:27;4.00;;;1.63;;
3971;SDS011;2000;47.572;14.202;2023-12-04T03:58:54;3.13;;;1.90;;
3971;SDS011;2000;47.572;14.202;2023-12-04T04:01:21;5.90;;;1.40;;
3971;SDS011;2000;47.572;14.202;2023-12-04T04:03:48;7.30;;;2.50;;
3971;SDS011;2000;47.572;14.202;2023-12-04T04:06:15;3.93;;;2.30;;
3971;SDS011;2000;47.572;14.202;2023-12-04T04:08:42;2.47;;;1.77;;
3971;SDS011;2000;47.572;14.202;2023-12-04T04:11:09;4.20;;;1.60;;
3971;SDS011;2000;47.572;14.202;2023-12-04T04:13:37;3.80;;;1.80;;
3971;SDS011;2000;47.572;14.202;2023-12-04T04:16:04;8.53;;;2.67;;
3971;SDS011;2000;47.572;14.202;2023-12-04T04:18:32;5.23;;;1.80;;
3971;SDS011;2000;47.572;14.202;2023-12-04T04:21:00;7.30;;;2.80;;
3971;SDS011;2000;47.572;14.202;2023-12-04T04:23:27;2.00;;;1.47;;
3971;SDS011;2000;47.572;14.202;2023-12-04T04:25:54;5.90;;;3.60;;
3971;SDS011;2000;47.572;14.202;2023-12-04T04:28:21;2.53;;;1.30;;
3971;SDS011;2000;47.572;14.202;2023-12-04T04:30:48;5.13;;;1.97;;
3971;SDS011;2000;47.572;14.202;2023-12-04T04:33:15;1.80;;;1.20;;
3971;SDS011;2000;47.572;14.202;2023-12-04T04:35:43;6.17;;;3.40;;
3971;SDS011;2000;47.572;14.202;2023-12-04T04:38:10;8.70;;;3.30;;
3971;SDS011;2000;47.572;14.202;2023-12-04T04:40:37;4.80;;;3.00;;
3971;SDS011;2000;47.572;14.202;2023-12-04T04:43:09;11.87;;;3.83;;
3971;SDS011;2000;47.572;14.202;2023-12-04T04:45:37;5.70;;;2.10;;
3971;SDS011;2000;47.572;14.202;2023-12-04T04:48:04;11.70;;;3.40;;
3971;SDS011;2000;47.572;14.202;2023-12-04T04:50:31;4.47;;;3.20;;
3971;SDS011;2000;47.572;14.202;2023-12-04T04:52:58;4.00;;;2.87;;
3971;SDS011;2000;47.572;14.202;2023-12-04T04:55:25;3.37;;;2.70;;
3971;SDS011;2000;47.572;14.202;2023-12-04T04:58:12;3.57;;;3.03;;
3971;SDS011;2000;47.572;14.202;2023-12-04T05:00:40;2.03;;;1.77;;
3971;SDS011;2000;47.572;14.202;2023-12-04T05:03:07;4.50;;;2.50;;
3971;SDS011;2000;47.572;14.202;2023-12-04T05:05:34;4.60;;;2.27;;
3971;SDS011;2000;47.572;14.202;2023-12-04T05:08:01;5.13;;;2.77;;
3971;SDS011;2000;47.572;14.202;2023-12-04T05:10:28;5.87;;;3.97;;
3971;SDS011;2000;47.572;14.202;2023-12-04T05:12:55;4.70;;;4.03;;
3971;SDS011;2000;47.572;14.202;2023-12-04T05:15:22;3.63;;;2.83;;
3971;SDS011;2000;47.572;14.202;2023-12-04T05:17:50;3.67;;;2.97;;
3971;SDS011;2000;47.572;14.202;2023-12-04T05:20:17;4.63;;;2.50;;
3971;SDS011;2000;47.572;14.202;2023-12-04T05:22:44;3.13;;;2.43;;
3971;SDS011;2000;47.572;14.202;2023-12-04T05:25:11;3.47;;;2.43;;
3971;SDS011;2000;47.572;14.202;2023-12-04T05:27:38;3.13;;;2.60;;
3971;SDS011;2000;47.572;14.202;2023-12-04T05:30:05;21.60;;;3.50;;
3971;SDS011;2000;47.572;14.202;2023-12-04T05:32:33;10.17;;;4.83;;
3971;SDS011;2000;47.572;14.202;2023-12-04T05:35:00;8.70;;;4.63;;
3971;SDS011;2000;47.572;14.202;2023-12-04T05:37:27;17.70;;;6.97;;
3971;SDS011;2000;47.572;14.202;2023-12-04T05:39:55;12.83;;;5.47;;
3971;SDS011;2000;47.572;14.202;2023-12-04T05:42:22;13.50;;;5.80;;
3971;SDS011;2000;47.572;14.202;2023-12-04T05:44:49;2.40;;;1.47;;
3971;SDS011;2000;47.572;14.202;2023-12-04T05:47:16;8.27;;;3.93;;
3971;SDS011;2000;47.572;14.202;2023-12-04T05:49:43;4.47;;;2.93;;
3971;SDS011;2000;47.572;14.202;2023-12-04T05:52:10;7.70;;;2.47;;
3971;SDS011;2000;47.572;14.202;2023-12-04T05:54:38;14.63;;;3.40;;
3971;SDS011;2000;47.572;14.202;2023-12-04T05:57:05;3.40;;;2.10;;
3971;SDS011;2000;47.572;14.202;2023-12-04T05:59:32;5.07;;;2.53;;
3971;SDS011;2000;47.572;14.202;2023-12-04T06:01:59;4.63;;;2.50;;
3971;SDS011;2000;47.572;14.202;2023-12-04T06:04:26;12.23;;;3.60;;
3971;SDS011;2000;47.572;14.202;2023-12-04T06:06:53;5.40;;;3.73;;
3971;SDS011;2000;47.572;14.202;2023-12-04T06:09:20;9.33;;;4.60;;
3971;SDS011;2000;47.572;14.202;2023-12-04T06:11:47;18.00;;;5.63;;
3971;SDS011;2000;47.572;14.202;2023-12-04T06:14:14;6.20;;;3.50;;
3971;SDS011;2000;47.572;14.202;2023-12-04T06:16:41;4.37;;;3.83;;
3971;SDS011;2000;47.572;14.202;2023-12-04T06:19:08;4.33;;;2.20;;
3971;SDS011;2000;47.572;14.202;2023-12-04T06:21:35;9.10;;;4.27;;
3971;SDS011;2000;47.572;14.202;2023-12-04T06:24:02;6.37;;;3.03;;
3971;SDS011;2000;47.572;14.202;2023-12-04T06:26:33;5.43;;;2.00;;
3971;SDS011;2000;47.572;14.202;2023-12-04T06:29:02;5.90;;;3.17;;
3971;SDS011;2000;47.572;14.202;2023-12-04T06:31:30;7.90;;;4.30;;
3971;SDS011;2000;47.572;14.202;2023-12-04T06:33:57;3.13;;;2.40;;
3971;SDS011;2000;47.572;14.202;2023-12-04T06:36:24;5.93;;;2.80;;
3971;SDS011;2000;47.572;14.202;2023-12-04T06:38:52;2.60;;;2.10;;
3971;SDS011;2000;47.572;14.202;2023-12-04T06:41:19;8.23;;;1.77;;
3971;SDS011;2000;47.572;14.202;2023-12-04T06:43:48;11.20;;;2.80;;
3971;SDS011;2000;47.572;14.202;2023-12-04T06:46:19;3.10;;;1.80;;
3971;SDS011;2000;47.572;14.202;2023-12-04T06:48:46;3.90;;;1.77;;
3971;SDS011;2000;47.572;14.202;2023-12-04T06:51:15;5.30;;;2.20;;
3971;SDS011;2000;47.572;14.202;2023-12-04T06:53:41;5.90;;;2.20;;
3971;SDS011;2000;47.572;14.202;2023-12-04T06:56:09;16.47;;;4.30;;
3971;SDS011;2000;47.572;14.202;2023-12-04T06:58:36;2.80;;;1.50;;
3971;SDS011;2000;47.572;14.202;2023-12-04T07:01:03;3.70;;;2.20;;
3971;SDS011;2000;47.572;14.202;2023-12-04T07:03:30;7.93;;;3.63;;
3971;SDS011;2000;47.572;14.202;2023-12-04T07:05:57;43.60;;;2.60;;
3971;SDS011;2000;47.572;14.202;2023-12-04T07:08:24;6.53;;;3.40;;
3971;SDS011;2000;47.572;14.202;2023-12-04T07:10:51;14.57;;;3.57;;
3971;SDS011;2000;47.572;14.202;2023-12-04T07:13:19;10.37;;;2.90;;
3971;SDS011;2000;47.572;14.202;2023-12-04T07:15:46;5.53;;;3.23;;
3971;SDS011;2000;47.572;14.202;2023-12-04T07:18:13;6.57;;;3.93;;
3971;SDS011;2000;47.572;14.202;2023-12-04T07:20:40;9.40;;;4.10;;
3971;SDS011;2000;47.572;14.202;2023-12-04T07:23:07;9.90;;;4.77;;
3971;SDS011;2000;47.572;14.202;2023-12-04T07:25:34;13.50;;;5.87;;
3971;SDS011;2000;47.572;14.202;2023-12-04T07:28:01;14.63;;;6.27;;
3971;SDS011;2000;47.572;14.202;2023-12-04T07:30:28;13.40;;;6.20;;
3971;SDS011;2000;47.572;14.202;2023-12-04T07:32:55;11.97;;;6.63;;
3971;SDS011;2000;47.572;14.202;2023-12-04T07:35:22;20.10;;;9.00;;
3971;SDS011;2000;47.572;14.202;2023-12-04T07:37:49;10.73;;;6.67;;
3971;SDS011;2000;47.572;14.202;2023-12-04T07:40:16;15.03;;;6.70;;
3971;SDS011;2000;47.572;14.202;2023-12-04T07:42:43;22.80;;;7.73;;
3971;SDS011;2000;47.572;14.202;2023-12-04T07:45:10;16.10;;;6.73;;
3971;SDS011;2000;47.572;14.202;2023-12-04T07:47:37;11.30;;;7.10;;
3971;SDS011;2000;47.572;14.202;2023-12-04T07:50:05;10.90;;;5.90;;
3971;SDS011;2000;47.572;14.202;2023-12-04T07:52:33;11.03;;;5.93;;
3971;SDS011;2000;47.572;14.202;2023-12-04T07:55:00;18.80;;;6.30;;
3971;SDS011;2000;47.572;14.202;2023-12-04T07:57:27;18.70;;;10.10;;
3971;SDS011;2000;47.572;14.202;2023-12-04T07:59:54;29.57;;;14.63;;
3971;SDS011;2000;47.572;14.202;2023-12-04T08:02:21;25.87;;;13.70;;
3971;SDS011;2000;47.572;14.202;2023-12-04T08:04:48;25.07;;;12.53;;
3971;SDS011;2000;47.572;14.202;2023-12-04T08:07:15;24.73;;;8.53;;
3971;SDS011;2000;47.572;14.202;2023-12-04T08:09:42;14.30;;;7.67;;
3971;SDS011;2000;47.572;14.202;2023-12-04T08:12:09;13.97;;;7.83;;
3971;SDS011;2000;47.572;14.202;2023-12-04T08:14:36;12.20;;;6.47;;
3971;SDS011;2000;47.572;14.202;2023-12-04T08:17:03;26.73;;;8.17;;
3971;SDS011;2000;47.572;14.202;2023-12-04T08:19:31;12.47;;;5.73;;
3971;SDS011;2000;47.572;14.202;2023-12-04T08:21:58;13.10;;;5.40;;
3971;SDS011;2000;47.572;14.202;2023-12-04T08:24:25;8.30;;;4.43;;
3971;SDS011;2000;47.572;14.202;2023-12-04T08:26:53;5.10;;;4.53;;
3971;SDS011;2000;47.572;14.202;2023-12-04T08:29:20;6.30;;;4.63;;
3971;SDS011;2000;47.572;14.202;2023-12-04T08:31:47;20.63;;;6.20;;
3971;SDS011;2000;47.572;14.202;2023-12-04T08:34:14;14.57;;;8.10;;
3971;SDS011;2000;47.572;14.202;2023-12-04T08:36:42;18.73;;;8.77;;
3971;SDS011;2000;47.572;14.202;2023-12-04T08:39:12;26.43;;;10.10;;
3971;SDS011;2000;47.572;14.202;2023-12-04T08:41:40;20.20;;;9.67;;
3971;SDS011;2000;47.572;14.202;2023-12-04T08:44:19;15.33;;;6.97;;
3971;SDS011;2000;47.572;14.202;2023-12-04T08:46:46;18.80;;;10.10;;
3971;SDS011;2000;47.572;14.202;2023-12-04T08:49:13;23.97;;;9.20;;
3971;SDS011;2000;47.572;14.202;2023-12-04T08:51:40;10.80;;;7.17;;
3971;SDS011;2000;47.572;14.202;2023-12-04T08:54:07;21.17;;;9.93;;
3971;SDS011;2000;47.572;14.202;2023-12-04T08:56:37;18.53;;;10.67;;
3971;SDS011;2000;47.572;14.202;2023-12-04T08:59:04;18.17;;;8.60;;
3971;SDS011;2000;47.572;14.202;2023-12-04T09:01:31;9.67;;;5.83;;
3971;SDS011;2000;47.572;14.202;2023-12-04T09:03:58;11.33;;;5.40;;
3971;SDS011;2000;47.572;14.202;2023-12-04T09:06:26;12.67;;;5.67;;
3971;SDS011;2000;47.572;14.202;2023-12-04T09:09:13;4.80;;;3.80;;
3971;SDS011;2000;47.572;14.202;2023-12-04T09:11:42;42.03;;;13.43;;
3971;SDS011;2000;47.572;14.202;2023-12-04T09:14:10;37.93;;;12.73;;
3971;SDS011;2000;47.572;14.202;2023-12-04T09:16:37;9.40;;;5.17;;
3971;SDS011;2000;47.572;14.202;2023-12-04T09:19:04;7.23;;;4.43;;
3971;SDS011;2000;47.572;14.202;2023-12-04T09:21:31;14.90;;;4.40;;
3971;SDS011;2000;47.572;14.202;2023-12-04T09:23:59;6.20;;;4.17;;
3971;SDS011;2000;47.572;14.202;2023-12-04T09:26:26;14.07;;;5.63;;
3971;SDS011;2000;47.572;14.202;2023-12-04T09:28:53;14.13;;;7.00;;
3971;SDS011;2000;47.572;14.202;2023-12-04T09:31:20;11.77;;;5.13;;
3971;SDS011;2000;47.572;14.202;2023-12-04T09:33:48;10.93;;;5.00;;
3971;SDS011;2000;47.572;14.202;2023-12-04T09:36:15;10.63;;;5.73;;
3971;SDS011;2000;47.572;14.202;2023-12-04T09:38:42;8.30;;;4.87;;
3971;SDS011;2000;47.572;14.202;2023-12-04T09:41:10;18.80;;;5.43;;
3971;SDS011;2000;47.572;14.202;2023-12-04T09:43:37;17.37;;;5.13;;
3971;SDS011;2000;47.572;14.202;2023-12-04T09:46:04;10.77;;;5.10;;
3971;SDS011;2000;47.572;14.202;2023-12-04T09:48:32;24.77;;;5.63;;
3971;SDS011;2000;47.572;14.202;2023-12-04T09:51:00;9.37;;;4.47;;
3971;SDS011;2000;47.572;14.202;2023-12-04T09:53:29;9.77;;;4.33;;
3971;SDS011;2000;47.572;14.202;2023-12-04T09:55:58;5.73;;;4.10;;
3971;SDS011;2000;47.572;14.202;2023-12-04T09:58:27;9.00;;;3.53;;
3971;SDS011;2000;47.572;14.202;2023-12-04T10:00:59;8.23;;;4.43;;
3971;SDS011;2000;47.572;14.202;2023-12-04T10:03:27;9.70;;;4.00;;
3971;SDS011;2000;47.572;14.202;2023-12-04T10:05:57;5.80;;;4.00;;
3971;SDS011;2000;47.572;14.202;2023-12-04T10:08:24;6.13;;;3.50;;
3971;SDS011;2000;47.572;14.202;2023-12-04T10:10:51;5.23;;;2.90;;
3971;SDS011;2000;47.572;14.202;2023-12-04T10:13:18;5.97;;;2.87;;
3971;SDS011;2000;47.572;14.202;2023-12-04T10:16:05;8.60;;;5.40;;
3971;SDS011;2000;47.572;14.202;2023-12-04T10:18:33;8.83;;;5.77;;
3971;SDS011;2000;47.572;14.202;2023-12-04T10:21:00;12.80;;;5.00;;
3971;SDS011;2000;47.572;14.202;2023-12-04T10:23:39;6.10;;;3.50;;
3971;SDS011;2000;47.572;14.202;2023-12-04T10:26:09;7.97;;;3.03;;
3971;SDS011;2000;47.572;14.202;2023-12-04T10:28:36;9.03;;;4.00;;
3971;SDS011;2000;47.572;14.202;2023-12-04T10:31:03;11.80;;;4.43;;
3971;SDS011;2000;47.572;14.202;2023-12-04T10:33:33;6.93;;;4.03;;
3971;SDS011;2000;47.572;14.202;2023-12-04T10:36:01;8.43;;;3.40;;
3971;SDS011;2000;47.572;14.202;2023-12-04T10:38:29;4.70;;;3.20;;
3971;SDS011;2000;47.572;14.202;2023-12-04T10:40:56;12.23;;;4.00;;
3971;SDS011;2000;47.572;14.202;2023-12-04T10:43:46;12.70;;;4.20;;
3971;SDS011;2000;47.572;14.202;2023-12-04T10:46:25;7.73;;;6.03;;
3971;SDS011;2000;47.572;14.202;2023-12-04T10:48:52;11.07;;;3.33;;
3971;SDS011;2000;47.572;14.202;2023-12-04T10:51:19;6.60;;;4.20;;
3971;SDS011;2000;47.572;14.202;2023-12-04T10:53:50;4.97;;;4.03;;
3971;SDS011;2000;47.572;14.202;2023-12-04T10:56:24;9.63;;;3.47;;
3971;SDS011;2000;47.572;14.202;2023-12-04T10:58:58;6.47;;;3.27;;
3971;SDS011;2000;47.572;14.202;2023-12-04T11:01:25;6.20;;;3.77;;
3971;SDS011;2000;47.572;14.202;2023-12-04T11:03:53;7.20;;;3.57;;
3971;SDS011;2000;47.572;14.202;2023-12-04T11:06:23;7.07;;;3.80;;
3971;SDS011;2000;47.572;14.202;2023-12-04T11:08:51;6.27;;;3.67;;
3971;SDS011;2000;47.572;14.202;2023-12-04T11:11:21;24.83;;;3.03;;
3971;SDS011;2000;47.572;14.202;2023-12-04T11:13:54;4.50;;;3.27;;
3971;SDS011;2000;47.572;14.202;2023-12-04T11:16:27;19.17;;;9.90;;
3971;SDS011;2000;47.572;14.202;2023-12-04T11:19:00;9.30;;;4.03;;
3971;SDS011;2000;47.572;14.202;2023-12-04T11:21:33;11.50;;;5.83;;
3971;SDS011;2000;47.572;14.202;2023-12-04T11:24:00;12.87;;;6.30;;
3971;SDS011;2000;47.572;14.202;2023-12-04T11:26:28;13.57;;;7.80;;
3971;SDS011;2000;47.572;14.202;2023-12-04T11:28:55;16.97;;;8.07;;
3971;SDS011;2000;47.572;14.202;2023-12-04T11:31:23;5.37;;;3.67;;
3971;SDS011;2000;47.572;14.202;2023-12-04T11:33:50;12.97;;;4.20;;
3971;SDS011;2000;47.572;14.202;2023-12-04T11:36:17;5.90;;;3.53;;
3971;SDS011;2000;47.572;14.202;2023-12-04T11:38:45;12.60;;;3.30;;
3971;SDS011;2000;47.572;14.202;2023-12-04T11:41:21;14.07;;;4.67;;
3971;SDS011;2000;47.572;14.202;2023-12-04T11:43:54;7.53;;;4.40;;
3971;SDS011;2000;47.572;14.202;2023-12-04T11:46:24;10.20;;;5.60;;
3971;SDS011;2000;47.572;14.202;2023-12-04T11:51:58;22.57;;;10.50;;
3971;SDS011;2000;47.572;14.202;2023-12-04T11:54:27;11.30;;;5.93;;
3971;SDS011;2000;47.572;14.202;2023-12-04T11:59:37;14.63;;;6.00;;
3971;SDS011;2000;47.572;14.202;2023-12-04T12:02:07;7.13;;;4.77;;
3971;SDS011;2000;47.572;14.202;2023-12-04T12:04:34;7.00;;;3.87;;
3971;SDS011;2000;47.572;14.202;2023-12-04T12:07:02;17.73;;;7.23;;
3971;SDS011;2000;47.572;14.202;2023-12-04T12:09:32;15.77;;;6.50;;
3971;SDS011;2000;47.572;14.202;2023-12-04T12:12:01;16.33;;;5.13;;
3971;SDS011;2000;47.572;14.202;2023-12-04T12:14:29;25.70;;;8.37;;
3971;SDS011;2000;47.572;14.202;2023-12-04T12:17:00;13.40;;;5.20;;
3971;SDS011;2000;47.572;14.202;2023-12-04T12:19:28;10.60;;;6.50;;
3971;SDS011;2000;47.572;14.202;2023-12-04T12:21:55;15.60;;;3.80;;
3971;SDS011;2000;47.572;14.202;2023-12-04T12:24:23;4.60;;;3.87;;
3971;SDS011;2000;47.572;14.202;2023-12-04T12:26:53;10.60;;;4.57;;
3971;SDS011;2000;47.572;14.202;2023-12-04T12:29:21;9.30;;;4.03;;
3971;SDS011;2000;47.572;14.202;2023-12-04T12:31:48;13.23;;;4.60;;
3971;SDS011;2000;47.572;14.202;2023-12-04T12:34:17;12.27;;;5.33;;
3971;SDS011;2000;47.572;14.202;2023-12-04T12:36:44;13.10;;;5.70;;
3971;SDS011;2000;47.572;14.202;2023-12-04T12:39:11;8.43;;;3.80;;
3971;SDS011;2000;47.572;14.202;2023-12-04T12:41:39;7.93;;;3.60;;
3971;SDS011;2000;47.572;14.202;2023-12-04T12:44:06;12.50;;;4.53;;
3971;SDS011;2000;47.572;14.202;2023-12-04T12:46:33;14.40;;;4.43;;
3971;SDS011;2000;47.572;14.202;2023-12-04T12:49:00;8.63;;;4.20;;
3971;SDS011;2000;47.572;14.202;2023-12-04T12:51:27;8.73;;;5.50;;
3971;SDS011;2000;47.572;14.202;2023-12-04T12:53:56;7.60;;;4.70;;
3971;SDS011;2000;47.572;14.202;2023-12-04T12:56:25;23.30;;;5.77;;
3971;SDS011;2000;47.572;14.202;2023-12-04T12:58:53;18.43;;;5.30;;
3971;SDS011;2000;47.572;14.202;2023-12-04T13:01:22;16.13;;;5.33;;
3971;SDS011;2000;47.572;14.202;2023-12-04T13:03:56;16.17;;;5.00;;
3971;SDS011;2000;47.572;14.202;2023-12-04T13:06:24;16.33;;;4.03;;
3971;SDS011;2000;47.572;14.202;2023-12-04T13:08:52;21.57;;;7.70;;
3971;SDS011;2000;47.572;14.202;2023-12-04T13:11:19;46.63;;;8.00;;
3971;SDS011;2000;47.572;14.202;2023-12-04T13:13:46;25.70;;;13.67;;
3971;SDS011;2000;47.572;14.202;2023-12-04T13:16:13;15.23;;;8.30;;
3971;SDS011;2000;47.572;14.202;2023-12-04T13:18:41;14.03;;;6.83;;
3971;SDS011;2000;47.572;14.202;2023-12-04T13:21:08;14.63;;;6.13;;
3971;SDS011;2000;47.572;14.202;2023-12-04T13:23:37;13.97;;;5.70;;
3971;SDS011;2000;47.572;14.202;2023-12-04T13:26:04;10.17;;;5.40;;
3971;SDS011;2000;47.572;14.202;2023-12-04T13:28:32;13.70;;;5.77;;
3971;SDS011;2000;47.572;14.202;2023-12-04T13:31:09;15.10;;;4.93;;
3971;SDS011;2000;47.572;14.202;2023-12-04T13:33:36;17.57;;;5.57;;
3971;SDS011;2000;47.572;14.202;2023-12-04T13:36:06;12.20;;;5.00;;
3971;SDS011;2000;47.572;14.202;2023-12-04T13:38:33;15.07;;;5.60;;
3971;SDS011;2000;47.572;14.202;2023-12-04T13:41:03;12.40;;;5.67;;
3971;SDS011;2000;47.572;14.202;2023-12-04T13:43:49;14.67;;;5.30;;
3971;SDS011;2000;47.572;14.202;2023-12-04T13:46:16;8.63;;;4.93;;
3971;SDS011;2000;47.572;14.202;2023-12-04T13:48:43;10.20;;;5.57;;
3971;SDS011;2000;47.572;14.202;2023-12-04T13:51:11;11.70;;;6.13;;
3971;SDS011;2000;47.572;14.202;2023-12-04T13:53:39;17.27;;;6.77;;
3971;SDS011;2000;47.572;14.202;2023-12-04T13:56:16;13.43;;;6.00;;
3971;SDS011;2000;47.572;14.202;2023-12-04T13:59:12;13.10;;;5.83;;
3971;SDS011;2000;47.572;14.202;2023-12-04T14:01:47;17.60;;;9.07;;
3971;SDS011;2000;47.572;14.202;2023-12-04T14:04:17;13.60;;;7.37;;
3971;SDS011;2000;47.572;14.202;2023-12-04T14:06:44;13.53;;;6.10;;
3971;SDS011;2000;47.572;14.202;2023-12-04T14:09:12;12.23;;;5.73;;
3971;SDS011;2000;47.572;14.202;2023-12-04T14:11:43;7.97;;;5.53;;
3971;SDS011;2000;47.572;14.202;2023-12-04T14:14:11;9.60;;;6.20;;
3971;SDS011;2000;47.572;14.202;2023-12-04T14:16:42;15.70;;;6.77;;
3971;SDS011;2000;47.572;14.202;2023-12-04T14:19:09;23.83;;;7.47;;
3971;SDS011;2000;47.572;14.202;2023-12-04T14:21:36;17.80;;;8.10;;
3971;SDS011;2000;47.572;14.202;2023-12-04T14:24:04;25.23;;;10.57;;
3971;SDS011;2000;47.572;14.202;2023-12-04T14:26:31;15.63;;;7.40;;
3971;SDS011;2000;47.572;14.202;2023-12-04T14:28:58;15.10;;;8.43;;
3971;SDS011;2000;47.572;14.202;2023-12-04T14:31:27;37.03;;;9.73;;
3971;SDS011;2000;47.572;14.202;2023-12-04T14:33:54;15.70;;;9.30;;
3971;SDS011;2000;47.572;14.202;2023-12-04T14:36:22;30.07;;;8.70;;
3971;SDS011;2000;47.572;14.202;2023-12-04T14:38:49;18.70;;;7.77;;
3971;SDS011;2000;47.572;14.202;2023-12-04T14:41:16;15.67;;;7.73;;
3971;SDS011;2000;47.572;14.202;2023-12-04T14:43:43;20.90;;;7.93;;
3971;SDS011;2000;47.572;14.202;2023-12-04T14:46:10;9.23;;;5.57;;
3971;SDS011;2000;47.572;14.202;2023-12-04T14:48:37;14.17;;;5.37;;
3971;SDS011;2000;47.572;14.202;2023-12-04T14:51:06;12.00;;;6.77;;
3971;SDS011;2000;47.572;14.202;2023-12-04T14:53:34;19.43;;;8.23;;
3971;SDS011;2000;47.572;14.202;2023-12-04T14:56:17;18.33;;;6.50;;
3971;SDS011;2000;47.572;14.202;2023-12-04T14:59:02;18.17;;;8.67;;
3971;SDS011;2000;47.572;14.202;2023-12-04T15:01:32;17.10;;;7.47;;
3971;SDS011;2000;47.572;14.202;2023-12-04T15:04:19;19.30;;;8.53;;
3971;SDS011;2000;47.572;14.202;2023-12-04T15:07:04;14.37;;;8.30;;